sensor_id;sensor_type;location;lat;lon;timestamp;pressure;altitude;pressure_sealevel;temperature;humidity
29733;BME280;16643;43.158;25.302;2023-02-15T00:01:45;99332.78;;;2.82;92.50
29733;BME280;16643;43.158;25.302;2023-02-15T00:05:03;99330.19;;;2.80;93.06
29733;BME280;16643;43.158;25.302;2023-02-15T00:07:40;99332.66;;;2.77;93.27
29733;BME280;16643;43.158;25.302;2023-02-15T00:10:16;99337.75;;;2.76;93.12
29733;BME280;16643;43.158;25.302;2023-02-15T00:13:12;99337.69;;;2.73;93.45
29733;BME280;16643;43.158;25.302;2023-02-15T00:15:52;99340.25;;;2.73;93.02
29733;BME280;16643;43.158;25.302;2023-02-15T00:18:34;99338.59;;;2.75;93.16
29733;BME280;16643;43.158;25.302;2023-02-15T00:21:16;99339.34;;;2.69;93.29
29733;BME280;16643;43.158;25.302;2023-02-15T00:23:44;99333.34;;;2.69;93.64
29733;BME280;16643;43.158;25.302;2023-02-15T00:26:17;99345.34;;;2.70;93.39
29733;BME280;16643;43.158;25.302;2023-02-15T00:28:50;99345.47;;;2.76;93.24
29733;BME280;16643;43.158;25.302;2023-02-15T00:31:41;99334.19;;;2.68;93.38
29733;BME280;16643;43.158;25.302;2023-02-15T00:34:28;99333.44;;;2.73;93.25
29733;BME280;16643;43.158;25.302;2023-02-15T00:37:04;99340.19;;;2.68;93.29
29733;BME280;16643;43.158;25.302;2023-02-15T00:39:39;99342.78;;;2.70;93.29
29733;BME280;16643;43.158;25.302;2023-02-15T00:42:25;99335.78;;;2.63;93.84
29733;BME280;16643;43.158;25.302;2023-02-15T00:44:51;99341.66;;;2.57;94.06
29733;BME280;16643;43.158;25.302;2023-02-15T00:47:29;99344.06;;;2.51;94.08
29733;BME280;16643;43.158;25.302;2023-02-15T00:49:59;99328.63;;;2.49;95.03
29733;BME280;16643;43.158;25.302;2023-02-15T00:52:40;99342.41;;;2.53;95.08
29733;BME280;16643;43.158;25.302;2023-02-15T00:55:16;99345.72;;;2.47;94.94
29733;BME280;16643;43.158;25.302;2023-02-15T00:57:44;99342.25;;;2.45;95.25
29733;BME280;16643;43.158;25.302;2023-02-15T01:00:10;99340.38;;;2.38;95.10
29733;BME280;16643;43.158;25.302;2023-02-15T01:02:39;99339.50;;;2.38;95.12
29733;BME280;16643;43.158;25.302;2023-02-15T01:05:06;99336.06;;;2.36;95.17
29733;BME280;16643;43.158;25.302;2023-02-15T01:07:39;99333.56;;;2.40;95.16
29733;BME280;16643;43.158;25.302;2023-02-15T01:10:08;99336.13;;;2.40;95.00
29733;BME280;16643;43.158;25.302;2023-02-15T01:12:43;99324.09;;;2.36;95.13
29733;BME280;16643;43.158;25.302;2023-02-15T01:15:17;99323.19;;;2.34;95.16
29733;BME280;16643;43.158;25.302;2023-02-15T01:17:44;99325.84;;;2.39;95.19
29733;BME280;16643;43.158;25.302;2023-02-15T01:20:24;99330.06;;;2.35;95.03
29733;BME280;16643;43.158;25.302;2023-02-15T01:22:54;99320.72;;;2.39;94.92
29733;BME280;16643;43.158;25.302;2023-02-15T01:25:22;99324.06;;;2.35;95.22
29733;BME280;16643;43.158;25.302;2023-02-15T01:27:50;99324.88;;;2.34;95.17
29733;BME280;16643;43.158;25.302;2023-02-15T01:30:16;99321.53;;;2.36;95.35
29733;BME280;16643;43.158;25.302;2023-02-15T01:32:43;99322.38;;;2.35;95.20
29733;BME280;16643;43.158;25.302;2023-02-15T01:35:11;99321.31;;;2.27;95.38
29733;BME280;16643;43.158;25.302;2023-02-15T01:37:46;99314.47;;;2.28;96.10
29733;BME280;16643;43.158;25.302;2023-02-15T01:40:18;99307.72;;;2.31;95.72
29733;BME280;16643;43.158;25.302;2023-02-15T01:42:54;99309.38;;;2.29;95.68
29733;BME280;16643;43.158;25.302;2023-02-15T01:45:27;99300.91;;;2.32;95.60
29733;BME280;16643;43.158;25.302;2023-02-15T01:48:05;99294.13;;;2.34;95.44
29733;BME280;16643;43.158;25.302;2023-02-15T01:50:36;99307.75;;;2.33;95.68
29733;BME280;16643;43.158;25.302;2023-02-15T01:56:04;99305.16;;;2.31;95.62
29733;BME280;16643;43.158;25.302;2023-02-15T01:58:38;99301.78;;;2.32;95.31
29733;BME280;16643;43.158;25.302;2023-02-15T02:01:10;99293.16;;;2.30;95.70
29733;BME280;16643;43.158;25.302;2023-02-15T02:03:56;99300.75;;;2.24;95.86
29733;BME280;16643;43.158;25.302;2023-02-15T02:06:24;99299.84;;;2.22;96.46
29733;BME280;16643;43.158;25.302;2023-02-15T02:08:55;99293.81;;;2.20;95.94
29733;BME280;16643;43.158;25.302;2023-02-15T02:11:23;99292.97;;;2.21;95.91
29733;BME280;16643;43.158;25.302;2023-02-15T02:13:52;99294.72;;;2.22;96.00
29733;BME280;16643;43.158;25.302;2023-02-15T02:26:57;99292.06;;;2.19;96.55
29733;BME280;16643;43.158;25.302;2023-02-15T02:29:40;99296.41;;;2.22;96.33
29733;BME280;16643;43.158;25.302;2023-02-15T02:35:19;99297.19;;;2.19;96.96
29733;BME280;16643;43.158;25.302;2023-02-15T02:38:03;99298.00;;;2.16;96.75
29733;BME280;16643;43.158;25.302;2023-02-15T02:43:00;99303.13;;;2.16;96.98
29733;BME280;16643;43.158;25.302;2023-02-15T02:45:39;99297.19;;;2.19;96.56
29733;BME280;16643;43.158;25.302;2023-02-15T02:48:15;99306.63;;;2.20;96.89
29733;BME280;16643;43.158;25.302;2023-02-15T02:50:45;99305.72;;;2.18;96.43
29733;BME280;16643;43.158;25.302;2023-02-15T02:53:18;99308.41;;;2.23;96.46
29733;BME280;16643;43.158;25.302;2023-02-15T02:55:54;99309.06;;;2.14;97.20
29733;BME280;16643;43.158;25.302;2023-02-15T03:01:08;99314.13;;;2.11;97.67
29733;BME280;16643;43.158;25.302;2023-02-15T03:03:46;99321.69;;;2.06;97.64
29733;BME280;16643;43.158;25.302;2023-02-15T03:06:19;99318.34;;;2.09;97.65
29733;BME280;16643;43.158;25.302;2023-02-15T03:08:50;99317.53;;;2.11;98.21
29733;BME280;16643;43.158;25.302;2023-02-15T03:11:18;99324.41;;;2.12;97.97
29733;BME280;16643;43.158;25.302;2023-02-15T03:13:47;99317.47;;;2.08;97.46
29733;BME280;16643;43.158;25.302;2023-02-15T03:16:18;99320.16;;;2.13;97.40
29733;BME280;16643;43.158;25.302;2023-02-15T03:18:55;99315.03;;;2.13;97.75
29733;BME280;16643;43.158;25.302;2023-02-15T03:21:44;99326.03;;;2.09;97.79
29733;BME280;16643;43.158;25.302;2023-02-15T03:24:19;99321.78;;;2.09;97.90
29733;BME280;16643;43.158;25.302;2023-02-15T03:26:52;99330.38;;;2.11;98.00
29733;BME280;16643;43.158;25.302;2023-02-15T03:29:20;99334.63;;;2.11;98.13
29733;BME280;16643;43.158;25.302;2023-02-15T03:31:49;99326.94;;;2.11;97.87
29733;BME280;16643;43.158;25.302;2023-02-15T03:34:16;99324.47;;;2.15;97.42
29733;BME280;16643;43.158;25.302;2023-02-15T03:41:56;99350.22;;;2.20;97.42
29733;BME280;16643;43.158;25.302;2023-02-15T03:44:30;99348.28;;;2.10;97.89
29733;BME280;16643;43.158;25.302;2023-02-15T03:47:05;99346.66;;;2.15;97.90
29733;BME280;16643;43.158;25.302;2023-02-15T03:49:36;99346.47;;;2.06;98.21
29733;BME280;16643;43.158;25.302;2023-02-15T03:52:06;99351.53;;;2.04;98.30
29733;BME280;16643;43.158;25.302;2023-02-15T03:54:34;99354.09;;;2.04;97.94
29733;BME280;16643;43.158;25.302;2023-02-15T03:57:21;99353.22;;;2.02;97.95
29733;BME280;16643;43.158;25.302;2023-02-15T04:00:09;99353.34;;;2.08;97.72
29733;BME280;16643;43.158;25.302;2023-02-15T04:02:58;99358.50;;;2.08;97.34
29733;BME280;16643;43.158;25.302;2023-02-15T04:05:30;99362.75;;;2.08;97.61
29733;BME280;16643;43.158;25.302;2023-02-15T04:07:57;99376.47;;;2.10;97.38
29733;BME280;16643;43.158;25.302;2023-02-15T04:10:27;99378.94;;;2.07;97.40
29733;BME280;16643;43.158;25.302;2023-02-15T04:13:11;99378.09;;;2.06;97.72
29733;BME280;16643;43.158;25.302;2023-02-15T04:15:36;99379.91;;;2.10;97.29
29733;BME280;16643;43.158;25.302;2023-02-15T04:18:20;99376.50;;;2.11;96.95
29733;BME280;16643;43.158;25.302;2023-02-15T04:21:07;99374.66;;;2.06;97.22
29733;BME280;16643;43.158;25.302;2023-02-15T04:23:51;99379.00;;;2.08;97.03
29733;BME280;16643;43.158;25.302;2023-02-15T04:26:35;99384.25;;;2.13;96.83
29733;BME280;16643;43.158;25.302;2023-02-15T04:29:02;99383.47;;;2.17;96.31
29733;BME280;16643;43.158;25.302;2023-02-15T04:31:27;99383.44;;;2.15;96.08
29733;BME280;16643;43.158;25.302;2023-02-15T04:33:59;99389.28;;;2.10;96.26
29733;BME280;16643;43.158;25.302;2023-02-15T04:36:28;99382.38;;;2.07;96.26
29733;BME280;16643;43.158;25.302;2023-02-15T04:38:54;99379.13;;;2.14;96.15
29733;BME280;16643;43.158;25.302;2023-02-15T04:41:26;99391.13;;;2.15;96.59
29733;BME280;16643;43.158;25.302;2023-02-15T04:43:58;99397.19;;;2.19;96.08
29733;BME280;16643;43.158;25.302;2023-02-15T04:46:29;99395.38;;;2.15;95.81
29733;BME280;16643;43.158;25.302;2023-02-15T04:48:55;99395.34;;;2.12;96.26
29733;BME280;16643;43.158;25.302;2023-02-15T04:51:21;99397.06;;;2.13;95.96
29733;BME280;16643;43.158;25.302;2023-02-15T04:53:49;99391.94;;;2.14;96.32
29733;BME280;16643;43.158;25.302;2023-02-15T04:56:19;99406.34;;;2.08;96.49
29733;BME280;16643;43.158;25.302;2023-02-15T04:58:48;99416.44;;;2.02;97.01
29733;BME280;16643;43.158;25.302;2023-02-15T05:01:16;99416.41;;;2.00;97.09
29733;BME280;16643;43.158;25.302;2023-02-15T05:03:43;99412.28;;;2.07;96.63
29733;BME280;16643;43.158;25.302;2023-02-15T05:06:21;99425.28;;;2.13;96.37
29733;BME280;16643;43.158;25.302;2023-02-15T05:08:51;99424.34;;;2.11;96.59
29733;BME280;16643;43.158;25.302;2023-02-15T05:11:18;99432.13;;;2.14;96.25
29733;BME280;16643;43.158;25.302;2023-02-15T05:13:45;99435.41;;;2.08;96.49
29733;BME280;16643;43.158;25.302;2023-02-15T05:16:24;99441.28;;;2.04;96.73
29733;BME280;16643;43.158;25.302;2023-02-15T05:18:56;99450.00;;;2.11;96.85
29733;BME280;16643;43.158;25.302;2023-02-15T05:21:52;99443.19;;;2.11;95.89
29733;BME280;16643;43.158;25.302;2023-02-15T05:24:29;99454.31;;;2.12;96.36
29733;BME280;16643;43.158;25.302;2023-02-15T05:27:13;99448.09;;;2.02;96.35
29733;BME280;16643;43.158;25.302;2023-02-15T05:30:04;99440.31;;;1.99;97.11
29733;BME280;16643;43.158;25.302;2023-02-15T05:32:57;99442.81;;;1.98;97.37
29733;BME280;16643;43.158;25.302;2023-02-15T05:35:34;99446.94;;;1.93;97.06
29733;BME280;16643;43.158;25.302;2023-02-15T05:38:28;99456.03;;;1.80;97.87
29733;BME280;16643;43.158;25.302;2023-02-15T05:46:06;99455.66;;;1.66;99.42
29733;BME280;16643;43.158;25.302;2023-02-15T06:21:27;99487.13;;;2.25;99.23
29733;BME280;16643;43.158;25.302;2023-02-15T06:24:13;99490.81;;;2.36;99.35
29733;BME280;16643;43.158;25.302;2023-02-15T06:26:57;99495.97;;;2.36;98.44
29733;BME280;16643;43.158;25.302;2023-02-15T06:29:30;99493.38;;;2.36;99.07
29733;BME280;16643;43.158;25.302;2023-02-15T06:32:07;99513.22;;;2.43;98.83
29733;BME280;16643;43.158;25.302;2023-02-15T06:34:37;99496.88;;;2.40;98.91
29733;BME280;16643;43.158;25.302;2023-02-15T06:37:06;99491.91;;;2.46;98.41
29733;BME280;16643;43.158;25.302;2023-02-15T06:39:39;99493.66;;;2.47;98.76
29733;BME280;16643;43.158;25.302;2023-02-15T06:42:09;99488.81;;;2.59;98.04
29733;BME280;16643;43.158;25.302;2023-02-15T06:44:37;99502.34;;;2.53;97.93
29733;BME280;16643;43.158;25.302;2023-02-15T06:47:09;99483.44;;;2.50;98.25
29733;BME280;16643;43.158;25.302;2023-02-15T06:49:37;99486.81;;;2.47;98.18
29733;BME280;16643;43.158;25.302;2023-02-15T06:52:04;99484.56;;;2.60;98.31
29733;BME280;16643;43.158;25.302;2023-02-15T06:54:30;99480.25;;;2.60;98.16
29733;BME280;16643;43.158;25.302;2023-02-15T06:56:56;99488.78;;;2.58;98.62
29733;BME280;16643;43.158;25.302;2023-02-15T06:59:30;99480.50;;;2.69;98.42
29733;BME280;16643;43.158;25.302;2023-02-15T07:01:57;99472.22;;;2.81;98.61
29733;BME280;16643;43.158;25.302;2023-02-15T07:04:29;99476.59;;;2.86;97.22
29733;BME280;16643;43.158;25.302;2023-02-15T07:06:56;99477.63;;;2.95;97.15
29733;BME280;16643;43.158;25.302;2023-02-15T07:09:22;99483.69;;;2.97;96.64
29733;BME280;16643;43.158;25.302;2023-02-15T07:12:06;99493.13;;;2.98;96.80
29733;BME280;16643;43.158;25.302;2023-02-15T07:14:52;99491.59;;;3.06;96.20
29733;BME280;16643;43.158;25.302;2023-02-15T07:17:31;99481.41;;;3.10;96.23
29733;BME280;16643;43.158;25.302;2023-02-15T07:19:57;99485.78;;;3.13;95.89
29733;BME280;16643;43.158;25.302;2023-02-15T07:22:24;99485.00;;;3.18;95.28
29733;BME280;16643;43.158;25.302;2023-02-15T07:24:50;99486.06;;;3.28;96.18
29733;BME280;16643;43.158;25.302;2023-02-15T07:27:19;99493.97;;;3.36;95.12
29733;BME280;16643;43.158;25.302;2023-02-15T07:30:07;99483.94;;;3.48;94.67
29733;BME280;16643;43.158;25.302;2023-02-15T07:32:37;99481.47;;;3.54;94.06
29733;BME280;16643;43.158;25.302;2023-02-15T07:35:25;99481.63;;;3.60;93.93
29733;BME280;16643;43.158;25.302;2023-02-15T07:37:57;99484.22;;;3.63;93.72
29733;BME280;16643;43.158;25.302;2023-02-15T07:40:26;99484.38;;;3.69;93.06
29733;BME280;16643;43.158;25.302;2023-02-15T07:42:52;99484.69;;;3.87;91.97
29733;BME280;16643;43.158;25.302;2023-02-15T07:45:20;99485.84;;;4.01;90.93
29733;BME280;16643;43.158;25.302;2023-02-15T07:47:45;99487.16;;;4.26;90.19
29733;BME280;16643;43.158;25.302;2023-02-15T07:50:13;99482.06;;;4.31;89.37
29733;BME280;16643;43.158;25.302;2023-02-15T07:55:41;99483.50;;;4.66;89.12
29733;BME280;16643;43.158;25.302;2023-02-15T07:58:07;99475.09;;;4.78;87.25
29733;BME280;16643;43.158;25.302;2023-02-15T08:00:38;99486.53;;;4.97;86.01
29733;BME280;16643;43.158;25.302;2023-02-15T08:03:23;99476.38;;;5.06;86.22
29733;BME280;16643;43.158;25.302;2023-02-15T08:05:56;99485.19;;;5.22;85.58
29733;BME280;16643;43.158;25.302;2023-02-15T08:08:24;99485.31;;;5.29;85.10
29733;BME280;16643;43.158;25.302;2023-02-15T08:11:02;99479.56;;;5.52;85.05
29733;BME280;16643;43.158;25.302;2023-02-15T08:14:04;99483.88;;;5.54;83.03
29733;BME280;16643;43.158;25.302;2023-02-15T08:16:42;99480.34;;;5.46;82.68
29733;BME280;16643;43.158;25.302;2023-02-15T08:19:35;99472.63;;;5.47;83.64
29733;BME280;16643;43.158;25.302;2023-02-15T08:22:15;99472.69;;;5.51;82.94
29733;BME280;16643;43.158;25.302;2023-02-15T08:24:49;99482.38;;;5.71;83.47
29733;BME280;16643;43.158;25.302;2023-02-15T08:27:23;99485.78;;;5.69;82.47
29733;BME280;16643;43.158;25.302;2023-02-15T08:29:57;99483.28;;;5.75;82.37
29733;BME280;16643;43.158;25.302;2023-02-15T08:32:31;99489.44;;;5.86;81.70
29733;BME280;16643;43.158;25.302;2023-02-15T08:35:18;99481.59;;;5.78;82.46
29733;BME280;16643;43.158;25.302;2023-02-15T08:37:46;99484.00;;;5.65;81.53
29733;BME280;16643;43.158;25.302;2023-02-15T08:40:49;99485.84;;;5.76;82.55
29733;BME280;16643;43.158;25.302;2023-02-15T08:43:45;99490.44;;;5.97;79.68
29733;BME280;16643;43.158;25.302;2023-02-15T08:46:17;99494.00;;;6.08;79.25
29733;BME280;16643;43.158;25.302;2023-02-15T08:49:12;99494.22;;;6.30;78.89
29733;BME280;16643;43.158;25.302;2023-02-15T08:51:46;99487.22;;;6.18;77.84
29733;BME280;16643;43.158;25.302;2023-02-15T08:54:29;99490.78;;;6.34;79.48
29733;BME280;16643;43.158;25.302;2023-02-15T08:56:56;99493.34;;;6.29;78.16
29733;BME280;16643;43.158;25.302;2023-02-15T09:02:51;99488.09;;;6.20;77.93
29733;BME280;16643;43.158;25.302;2023-02-15T09:16:28;99487.38;;;6.36;77.72
29733;BME280;16643;43.158;25.302;2023-02-15T09:30:18;99481.03;;;7.08;77.47
29733;BME280;16643;43.158;25.302;2023-02-15T09:33:00;99474.16;;;7.13;77.28
29733;BME280;16643;43.158;25.302;2023-02-15T09:38:43;99470.09;;;7.55;75.84
29733;BME280;16643;43.158;25.302;2023-02-15T09:44:07;99475.31;;;7.75;74.31
29733;BME280;16643;43.158;25.302;2023-02-15T09:49:39;99480.50;;;7.75;72.99
29733;BME280;16643;43.158;25.302;2023-02-15T09:52:43;99466.78;;;8.00;72.52
29733;BME280;16643;43.158;25.302;2023-02-15T10:01:30;99461.59;;;8.05;71.08
29733;BME280;16643;43.158;25.302;2023-02-15T10:10:22;99456.50;;;8.55;69.27
29733;BME280;16643;43.158;25.302;2023-02-15T10:39:25;99436.56;;;9.02;69.73
29733;BME280;16643;43.158;25.302;2023-02-15T10:44:49;99425.28;;;9.16;67.97
29733;BME280;16643;43.158;25.302;2023-02-15T10:50:30;99427.78;;;9.41;65.42
29733;BME280;16643;43.158;25.302;2023-02-15T11:06:31;99417.34;;;9.51;66.91
29733;BME280;16643;43.158;25.302;2023-02-15T11:09:03;99419.94;;;9.58;65.40
29733;BME280;16643;43.158;25.302;2023-02-15T11:11:34;99419.91;;;9.61;68.16
29733;BME280;16643;43.158;25.302;2023-02-15T11:14:45;99406.91;;;9.64;65.02
29733;BME280;16643;43.158;25.302;2023-02-15T11:17:01;99401.59;;;9.84;66.40
29733;BME280;16643;43.158;25.302;2023-02-15T11:19:33;99407.69;;;9.80;64.87
29733;BME280;16643;43.158;25.302;2023-02-15T11:22:06;99410.22;;;9.92;65.58
29733;BME280;16643;43.158;25.302;2023-02-15T11:24:38;99398.25;;;9.65;64.47
29733;BME280;16643;43.158;25.302;2023-02-15T11:27:10;99393.78;;;9.90;64.75
29733;BME280;16643;43.158;25.302;2023-02-15T11:29:57;99392.06;;;9.86;64.23
29733;BME280;16643;43.158;25.302;2023-02-15T11:32:33;99400.63;;;9.99;64.02
29733;BME280;16643;43.158;25.302;2023-02-15T11:37:44;99397.16;;;10.03;65.37
29733;BME280;16643;43.158;25.302;2023-02-15T11:40:20;99392.78;;;10.06;65.34
29733;BME280;16643;43.158;25.302;2023-02-15T11:42:51;99387.66;;;9.96;64.06
29733;BME280;16643;43.158;25.302;2023-02-15T11:47:44;99384.25;;;9.92;63.18
29733;BME280;16643;43.158;25.302;2023-02-15T11:50:12;99379.00;;;10.00;63.59
29733;BME280;16643;43.158;25.302;2023-02-15T11:52:43;99377.25;;;10.03;63.12
29733;BME280;16643;43.158;25.302;2023-02-15T11:55:12;99377.34;;;9.83;63.91
29733;BME280;16643;43.158;25.302;2023-02-15T11:57:41;99379.00;;;9.97;61.72
29733;BME280;16643;43.158;25.302;2023-02-15T12:02:50;99366.28;;;9.59;62.96
29733;BME280;16643;43.158;25.302;2023-02-15T12:05:18;99368.81;;;9.69;63.91
29733;BME280;16643;43.158;25.302;2023-02-15T12:07:57;99375.59;;;9.90;61.98
29733;BME280;16643;43.158;25.302;2023-02-15T12:10:41;99366.88;;;9.99;61.72
29733;BME280;16643;43.158;25.302;2023-02-15T12:13:15;99368.78;;;9.72;63.68
29733;BME280;16643;43.158;25.302;2023-02-15T12:15:43;99362.81;;;9.58;63.76
29733;BME280;16643;43.158;25.302;2023-02-15T12:21:02;99365.16;;;9.93;62.32
29733;BME280;16643;43.158;25.302;2023-02-15T12:23:30;99360.94;;;9.81;62.60
29733;BME280;16643;43.158;25.302;2023-02-15T12:25:57;99359.38;;;9.58;61.17
29733;BME280;16643;43.158;25.302;2023-02-15T12:28:35;99344.53;;;9.73;62.15
29733;BME280;16643;43.158;25.302;2023-02-15T12:31:02;99351.28;;;10.02;61.97
29733;BME280;16643;43.158;25.302;2023-02-15T12:34:02;99355.78;;;9.74;61.68
29733;BME280;16643;43.158;25.302;2023-02-15T12:36:22;99353.50;;;9.25;65.55
29733;BME280;16643;43.158;25.302;2023-02-15T12:39:02;99350.03;;;9.25;64.00
29733;BME280;16643;43.158;25.302;2023-02-15T12:41:28;99359.50;;;9.36;63.21
29733;BME280;16643;43.158;25.302;2023-02-15T12:46:34;99340.28;;;9.66;64.98
29733;BME280;16643;43.158;25.302;2023-02-15T12:51:43;99344.47;;;9.86;61.77
29733;BME280;16643;43.158;25.302;2023-02-15T12:56:50;99341.66;;;10.13;61.49
29733;BME280;16643;43.158;25.302;2023-02-15T12:59:15;99337.28;;;10.21;61.62
29733;BME280;16643;43.158;25.302;2023-02-15T13:01:45;99333.94;;;10.04;62.56
29733;BME280;16643;43.158;25.302;2023-02-15T13:06:45;99323.94;;;9.49;65.40
29733;BME280;16643;43.158;25.302;2023-02-15T13:09:16;99336.91;;;9.49;64.70
29733;BME280;16643;43.158;25.302;2023-02-15T13:12:23;99327.16;;;9.84;65.21
29733;BME280;16643;43.158;25.302;2023-02-15T13:15:00;99323.66;;;9.92;63.94
29733;BME280;16643;43.158;25.302;2023-02-15T13:17:29;99318.41;;;9.93;65.24
29733;BME280;16643;43.158;25.302;2023-02-15T13:20:17;99320.22;;;9.82;64.89
29733;BME280;16643;43.158;25.302;2023-02-15T13:22:47;99322.88;;;9.80;63.31
29733;BME280;16643;43.158;25.302;2023-02-15T13:25:25;99320.97;;;10.04;61.63
29733;BME280;16643;43.158;25.302;2023-02-15T13:27:57;99327.78;;;10.18;61.06
29733;BME280;16643;43.158;25.302;2023-02-15T13:30:30;99323.59;;;9.99;63.24
29733;BME280;16643;43.158;25.302;2023-02-15T13:33:03;99331.56;;;9.72;62.49
29733;BME280;16643;43.158;25.302;2023-02-15T13:35:42;99325.56;;;9.67;62.49
29733;BME280;16643;43.158;25.302;2023-02-15T13:40:55;99325.47;;;9.77;62.80
29733;BME280;16643;43.158;25.302;2023-02-15T13:45:59;99325.56;;;9.65;64.00
29733;BME280;16643;43.158;25.302;2023-02-15T13:48:38;99328.28;;;9.45;62.84
29733;BME280;16643;43.158;25.302;2023-02-15T13:51:55;99328.31;;;9.44;63.12
29733;BME280;16643;43.158;25.302;2023-02-15T13:54:16;99325.72;;;9.41;64.06
29733;BME280;16643;43.158;25.302;2023-02-15T14:02:30;99330.59;;;9.85;61.34
29733;BME280;16643;43.158;25.302;2023-02-15T14:13:50;99321.22;;;9.70;63.90
29733;BME280;16643;43.158;25.302;2023-02-15T14:17:23;99325.50;;;9.76;64.30
29733;BME280;16643;43.158;25.302;2023-02-15T14:22:00;99331.81;;;9.35;64.01
29733;BME280;16643;43.158;25.302;2023-02-15T14:27:10;99339.66;;;9.25;64.37
29733;BME280;16643;43.158;25.302;2023-02-15T14:29:51;99333.50;;;9.42;63.07
29733;BME280;16643;43.158;25.302;2023-02-15T14:35:26;99339.63;;;9.29;64.03
29733;BME280;16643;43.158;25.302;2023-02-15T14:38:05;99340.53;;;9.21;67.74
29733;BME280;16643;43.158;25.302;2023-02-15T14:43:34;99338.75;;;9.33;65.34
29733;BME280;16643;43.158;25.302;2023-02-15T14:48:55;99332.69;;;9.36;67.21
29733;BME280;16643;43.158;25.302;2023-02-15T14:51:53;99337.81;;;9.40;66.12
29733;BME280;16643;43.158;25.302;2023-02-15T15:04:38;99337.13;;;9.08;69.23
29733;BME280;16643;43.158;25.302;2023-02-15T15:07:22;99340.56;;;9.08;69.08
29733;BME280;16643;43.158;25.302;2023-02-15T15:09:59;99341.44;;;9.12;68.79
29733;BME280;16643;43.158;25.302;2023-02-15T15:15:00;99335.47;;;8.87;71.49
29733;BME280;16643;43.158;25.302;2023-02-15T15:22:38;99339.75;;;8.94;70.16
29733;BME280;16643;43.158;25.302;2023-02-15T15:25:11;99339.75;;;8.94;70.22
29733;BME280;16643;43.158;25.302;2023-02-15T15:27:38;99342.34;;;8.97;70.04
29733;BME280;16643;43.158;25.302;2023-02-15T15:46:18;99333.88;;;8.45;71.94
29733;BME280;16643;43.158;25.302;2023-02-15T15:48:57;99336.47;;;8.44;71.94
29733;BME280;16643;43.158;25.302;2023-02-15T15:51:32;99333.00;;;8.20;72.93
29733;BME280;16643;43.158;25.302;2023-02-15T15:54:02;99333.84;;;8.06;74.56
29733;BME280;16643;43.158;25.302;2023-02-15T15:56:32;99330.41;;;7.85;75.98
29733;BME280;16643;43.158;25.302;2023-02-15T15:59:00;99336.41;;;7.71;76.99
29733;BME280;16643;43.158;25.302;2023-02-15T16:01:34;99338.97;;;7.57;77.30
29733;BME280;16643;43.158;25.302;2023-02-15T16:04:01;99340.69;;;7.41;78.28
29733;BME280;16643;43.158;25.302;2023-02-15T16:06:37;99343.19;;;7.14;78.76
29733;BME280;16643;43.158;25.302;2023-02-15T16:09:18;99343.94;;;6.90;80.43
29733;BME280;16643;43.158;25.302;2023-02-15T16:11:48;99349.84;;;6.68;81.01
29733;BME280;16643;43.158;25.302;2023-02-15T16:14:20;99344.59;;;6.51;81.84
29733;BME280;16643;43.158;25.302;2023-02-15T16:16:49;99355.75;;;6.45;82.41
29733;BME280;16643;43.158;25.302;2023-02-15T16:19:18;99348.00;;;6.42;82.31
29733;BME280;16643;43.158;25.302;2023-02-15T16:21:47;99353.97;;;6.35;82.85
29733;BME280;16643;43.158;25.302;2023-02-15T16:26:59;99351.31;;;6.25;83.80
29733;BME280;16643;43.158;25.302;2023-02-15T16:29:34;99357.31;;;6.24;83.66
29733;BME280;16643;43.158;25.302;2023-02-15T16:32:06;99361.59;;;6.17;83.33
29733;BME280;16643;43.158;25.302;2023-02-15T16:34:32;99359.84;;;6.14;83.45
29733;BME280;16643;43.158;25.302;2023-02-15T16:37:17;99354.63;;;6.11;83.71
29733;BME280;16643;43.158;25.302;2023-02-15T16:39:43;99353.78;;;6.08;84.70
29733;BME280;16643;43.158;25.302;2023-02-15T16:42:13;99355.50;;;6.12;84.50
29733;BME280;16643;43.158;25.302;2023-02-15T16:44:45;99358.06;;;6.07;85.23
29733;BME280;16643;43.158;25.302;2023-02-15T16:47:14;99355.41;;;6.00;84.88
29733;BME280;16643;43.158;25.302;2023-02-15T16:49:42;99358.84;;;5.96;85.87
29733;BME280;16643;43.158;25.302;2023-02-15T16:52:10;99357.94;;;5.92;85.97
29733;BME280;16643;43.158;25.302;2023-02-15T16:54:43;99364.78;;;5.90;85.77
29733;BME280;16643;43.158;25.302;2023-02-15T16:57:16;99362.25;;;5.93;86.55
29733;BME280;16643;43.158;25.302;2023-02-15T16:59:50;99366.47;;;5.88;87.01
29733;BME280;16643;43.158;25.302;2023-02-15T17:02:27;99369.09;;;5.90;86.67
29733;BME280;16643;43.158;25.302;2023-02-15T17:07:40;99366.56;;;5.94;86.88
29733;BME280;16643;43.158;25.302;2023-02-15T17:10:26;99369.13;;;5.94;86.64
29733;BME280;16643;43.158;25.302;2023-02-15T17:12:56;99366.59;;;5.97;86.14
29733;BME280;16643;43.158;25.302;2023-02-15T17:15:27;99369.16;;;5.96;86.06
29733;BME280;16643;43.158;25.302;2023-02-15T17:17:55;99358.84;;;5.96;85.18
29733;BME280;16643;43.158;25.302;2023-02-15T17:20:20;99369.97;;;5.93;86.10
29733;BME280;16643;43.158;25.302;2023-02-15T17:22:48;99365.72;;;5.95;85.50
29733;BME280;16643;43.158;25.302;2023-02-15T17:25:20;99364.72;;;5.84;85.36
29733;BME280;16643;43.158;25.302;2023-02-15T17:28:03;99369.81;;;5.78;86.49
29733;BME280;16643;43.158;25.302;2023-02-15T17:30:30;99369.78;;;5.76;86.28
29733;BME280;16643;43.158;25.302;2023-02-15T17:32:58;99369.78;;;5.76;86.52
29733;BME280;16643;43.158;25.302;2023-02-15T17:35:25;99371.41;;;5.67;87.19
29733;BME280;16643;43.158;25.302;2023-02-15T17:40:31;99377.38;;;5.60;87.26
29733;BME280;16643;43.158;25.302;2023-02-15T17:42:57;99371.38;;;5.62;87.83
29733;BME280;16643;43.158;25.302;2023-02-15T17:45:25;99373.06;;;5.59;88.01
29733;BME280;16643;43.158;25.302;2023-02-15T17:47:51;99377.31;;;5.55;88.17
29733;BME280;16643;43.158;25.302;2023-02-15T17:50:20;99378.16;;;5.54;87.67
29733;BME280;16643;43.158;25.302;2023-02-15T17:52:46;99373.00;;;5.51;88.42
29733;BME280;16643;43.158;25.302;2023-02-15T17:55:13;99382.47;;;5.52;88.20